createdAt,value
2022-12-03T00:02:23.820Z,6.38
2022-12-03T00:04:51.570Z,5.75
2022-12-03T00:07:18.497Z,4.50
2022-12-03T00:09:45.235Z,6.53
2022-12-03T00:12:14.468Z,5.65
2022-12-03T00:14:44.622Z,6.03
2022-12-03T00:17:11.760Z,5.22
2022-12-03T00:19:38.419Z,5.03
2022-12-03T00:22:05.080Z,5.00
2022-12-03T00:24:34.519Z,5.25
2022-12-03T00:27:01.458Z,5.60
2022-12-03T00:29:28.571Z,5.82
2022-12-03T00:31:55.241Z,5.03
2022-12-03T00:34:22.402Z,5.00
2022-12-03T00:36:49.171Z,5.53
2022-12-03T00:39:15.971Z,5.85
2022-12-03T00:41:42.840Z,5.70
2022-12-03T00:44:10.363Z,5.25
2022-12-03T00:46:37.228Z,5.65
2022-12-03T00:49:03.971Z,5.78
2022-12-03T00:51:30.641Z,6.18
2022-12-03T00:53:57.259Z,5.72
2022-12-03T00:56:23.856Z,5.78
2022-12-03T00:58:50.842Z,6.43
2022-12-03T01:01:18.051Z,5.72
2022-12-03T01:03:44.793Z,6.25
2022-12-03T01:06:11.725Z,6.35
2022-12-03T01:08:38.414Z,6.93
2022-12-03T01:11:27.499Z,7.22
2022-12-03T01:13:54.195Z,6.40
2022-12-03T01:16:21.019Z,7.00
2022-12-03T01:18:47.967Z,6.55
2022-12-03T01:21:14.622Z,6.68
2022-12-03T01:23:41.262Z,7.40
2022-12-03T01:26:07.964Z,6.80
2022-12-03T01:28:34.629Z,7.32
2022-12-03T01:31:20.023Z,7.20
2022-12-03T01:33:48.372Z,6.03
2022-12-03T01:36:15.011Z,6.40
2022-12-03T01:38:41.620Z,6.93
2022-12-03T01:41:11.935Z,6.78
2022-12-03T01:43:46.569Z,9.90
2022-12-03T01:46:21.394Z,7.78
2022-12-03T01:48:50.590Z,8.27
2022-12-03T01:51:21.376Z,8.27
2022-12-03T01:53:48.894Z,13.27
2022-12-03T01:56:17.881Z,14.50
2022-12-03T01:58:46.393Z,8.38
2022-12-03T02:01:15.635Z,9.75
2022-12-03T02:03:43.246Z,7.28
2022-12-03T02:06:18.132Z,8.23
2022-12-03T02:08:45.866Z,7.93
2022-12-03T02:11:35.654Z,7.82
2022-12-03T02:14:05.385Z,8.93
2022-12-03T02:16:32.386Z,8.43
2022-12-03T02:18:59.157Z,8.32
2022-12-03T02:21:47.564Z,8.30
2022-12-03T02:24:20.085Z,14.07
2022-12-03T02:26:46.784Z,7.80
2022-12-03T02:29:13.487Z,8.02
2022-12-03T02:31:40.226Z,7.47
2022-12-03T02:34:07.719Z,8.35
2022-12-03T02:36:36.111Z,7.45
2022-12-03T02:39:03.525Z,8.00
2022-12-03T02:41:48.738Z,7.82
2022-12-03T02:44:15.522Z,7.75
2022-12-03T02:46:42.220Z,8.32
2022-12-03T02:49:08.960Z,7.90
2022-12-03T02:51:35.796Z,7.78
2022-12-03T02:54:03.802Z,7.43
2022-12-03T02:56:33.010Z,8.35
2022-12-03T02:59:03.245Z,7.88
2022-12-03T03:01:30.060Z,8.05
2022-12-03T03:03:58.159Z,9.43
2022-12-03T03:06:25.193Z,8.43
2022-12-03T03:08:52.385Z,8.55
2022-12-03T03:11:19.163Z,8.80
2022-12-03T03:13:46.279Z,8.90
2022-12-03T03:16:13.046Z,8.93
2022-12-03T03:18:40.379Z,9.32
2022-12-03T03:21:07.834Z,9.07
2022-12-03T03:23:34.583Z,9.45
2022-12-03T03:26:05.659Z,9.55
2022-12-03T03:28:36.031Z,8.73
2022-12-03T03:31:06.581Z,9.27
2022-12-03T03:33:34.240Z,10.10
2022-12-03T03:36:01.329Z,9.68
2022-12-03T03:38:29.930Z,10.88
2022-12-03T03:40:59.157Z,11.13
2022-12-03T03:43:26.227Z,10.40
2022-12-03T03:45:53.999Z,10.18
2022-12-03T03:48:21.220Z,11.45
2022-12-03T03:50:49.081Z,9.95
2022-12-03T03:53:17.557Z,10.60
2022-12-03T03:55:44.623Z,10.45
2022-12-03T03:58:11.458Z,10.13
2022-12-03T04:00:38.219Z,10.35
2022-12-03T04:03:05.562Z,10.52
2022-12-03T04:05:32.382Z,11.55
2022-12-03T04:07:59.263Z,9.70
2022-12-03T04:10:44.591Z,11.50
2022-12-03T04:13:11.232Z,11.05
2022-12-03T04:15:37.867Z,10.43
2022-12-03T04:18:23.090Z,11.63
2022-12-03T04:20:49.776Z,11.15
2022-12-03T04:23:16.420Z,11.80
2022-12-03T04:26:01.753Z,11.20
2022-12-03T04:28:47.115Z,12.32
2022-12-03T04:31:36.855Z,12.45
2022-12-03T04:36:48.333Z,12.48
2022-12-03T04:39:15.115Z,12.07
2022-12-03T04:41:41.866Z,11.95
2022-12-03T04:44:26.943Z,11.50
2022-12-03T04:46:53.580Z,11.82
2022-12-03T04:49:20.211Z,11.27
2022-12-03T04:51:46.975Z,12.48
2022-12-03T04:54:13.719Z,12.15
2022-12-03T04:56:40.490Z,11.65
2022-12-03T04:59:11.371Z,11.60
2022-12-03T05:01:42.644Z,12.85
2022-12-03T05:04:11.862Z,12.73
2022-12-03T05:06:42.376Z,12.55
2022-12-03T05:09:10.044Z,12.43
2022-12-03T05:11:37.193Z,12.52
2022-12-03T05:14:05.349Z,13.43
2022-12-03T05:16:32.424Z,12.63
2022-12-03T05:18:59.453Z,12.32
2022-12-03T05:21:26.316Z,12.52
2022-12-03T05:23:53.973Z,13.30
2022-12-03T05:26:20.719Z,12.75
2022-12-03T05:29:03.023Z,13.57
2022-12-03T05:31:29.916Z,12.70
2022-12-03T05:33:57.146Z,14.02
2022-12-03T05:36:25.579Z,13.10
2022-12-03T05:38:54.549Z,13.95
2022-12-03T05:41:40.107Z,14.77
2022-12-03T05:44:07.097Z,13.50
2022-12-03T05:46:33.912Z,13.50
2022-12-03T05:49:00.945Z,13.15
2022-12-03T05:51:28.457Z,13.43
2022-12-03T05:53:57.393Z,13.95
2022-12-03T05:56:27.333Z,13.60
2022-12-03T05:58:57.005Z,13.60
2022-12-03T06:01:26.968Z,14.07
2022-12-03T06:03:57.071Z,13.45
2022-12-03T06:06:23.737Z,14.00
2022-12-03T06:08:50.932Z,12.70
2022-12-03T06:11:18.360Z,13.48
2022-12-03T06:13:47.990Z,13.07
2022-12-03T06:16:14.679Z,14.45
2022-12-03T06:18:41.554Z,15.25
2022-12-03T06:21:08.313Z,14.13
2022-12-03T06:23:36.002Z,15.45
2022-12-03T06:26:03.316Z,14.75
2022-12-03T06:28:30.024Z,13.77
2022-12-03T06:31:03.028Z,14.52
2022-12-03T06:33:30.413Z,14.10
2022-12-03T06:35:57.395Z,13.05
2022-12-03T06:38:24.257Z,15.05
2022-12-03T06:40:54.274Z,15.00
2022-12-03T06:45:48.019Z,15.27
2022-12-03T06:48:15.020Z,14.52
2022-12-03T06:50:44.723Z,15.27
2022-12-03T06:55:47.502Z,15.00
2022-12-03T06:58:21.982Z,14.80
2022-12-03T07:00:52.497Z,15.75
2022-12-03T07:03:28.193Z,15.25
2022-12-03T07:09:16.700Z,15.07
2022-12-03T07:11:54.724Z,15.30
2022-12-03T07:14:29.715Z,16.33
2022-12-03T07:17:15.342Z,17.45
2022-12-03T07:20:29.260Z,14.68
2022-12-03T07:23:12.592Z,16.33
2022-12-03T07:25:49.045Z,21.58
2022-12-03T07:28:52.319Z,15.80
2022-12-03T07:31:22.798Z,15.10
2022-12-03T07:33:59.810Z,15.98
2022-12-03T07:39:15.702Z,17.15
2022-12-03T07:42:02.016Z,15.38
2022-12-03T07:44:42.728Z,14.65
2022-12-03T07:47:17.241Z,15.45
2022-12-03T07:49:47.314Z,16.50
2022-12-03T07:52:20.890Z,16.45
2022-12-03T07:54:57.892Z,15.52
2022-12-03T07:57:30.866Z,17.48
2022-12-03T07:59:57.984Z,16.75
2022-12-03T08:02:25.167Z,15.82
2022-12-03T08:04:52.681Z,15.70
2022-12-03T08:07:20.367Z,14.50
2022-12-03T08:09:47.537Z,15.45
2022-12-03T08:12:25.319Z,15.73
2022-12-03T08:14:53.175Z,14.43
2022-12-03T08:17:21.756Z,14.98
2022-12-03T08:19:50.028Z,13.80
2022-12-03T08:22:16.998Z,15.15
2022-12-03T08:24:44.110Z,16.25
2022-12-03T08:27:20.076Z,15.05
2022-12-03T08:29:49.904Z,16.10
2022-12-03T08:32:17.140Z,16.08
2022-12-03T08:34:47.288Z,14.18
2022-12-03T08:37:19.576Z,15.82
2022-12-03T08:39:50.552Z,15.02
2022-12-03T08:42:43.872Z,15.73
2022-12-03T08:45:29.673Z,14.52
2022-12-03T08:48:01.917Z,14.23
2022-12-03T08:50:34.386Z,15.27
2022-12-03T08:53:30.736Z,16.35
2022-12-03T08:56:02.689Z,14.88
2022-12-03T08:58:45.698Z,16.08
2022-12-03T09:01:35.210Z,15.55
2022-12-03T09:04:21.637Z,15.25
2022-12-03T09:06:50.494Z,16.13
2022-12-03T09:09:18.543Z,15.23
2022-12-03T09:11:46.466Z,18.95
2022-12-03T09:14:18.493Z,15.43
2022-12-03T09:16:46.490Z,14.73
2022-12-03T09:19:13.916Z,15.27
2022-12-03T09:21:44.587Z,15.80
2022-12-03T09:24:14.745Z,16.65
2022-12-03T09:26:42.075Z,15.25
2022-12-03T09:29:12.303Z,15.55
2022-12-03T09:31:40.665Z,16.23
2022-12-03T09:34:08.691Z,15.60
2022-12-03T09:36:35.925Z,17.17
2022-12-03T09:39:05.574Z,15.75
2022-12-03T09:41:34.559Z,15.80
2022-12-03T09:44:05.470Z,16.33
2022-12-03T09:46:36.178Z,15.90
2022-12-03T09:49:09.459Z,16.45
2022-12-03T09:51:40.125Z,16.23
2022-12-03T09:54:07.614Z,16.27
2022-12-03T09:56:38.555Z,14.82
2022-12-03T09:59:21.561Z,15.40
2022-12-03T10:01:53.230Z,14.25
2022-12-03T10:04:20.580Z,11.83
2022-12-03T10:06:50.904Z,15.98
2022-12-03T10:09:24.573Z,14.68
2022-12-03T10:11:56.326Z,15.95
2022-12-03T10:14:23.715Z,16.08
2022-12-03T10:16:51.371Z,14.85
2022-12-03T10:19:39.732Z,15.05
2022-12-03T10:22:09.406Z,14.68
2022-12-03T10:24:45.723Z,15.13
2022-12-03T10:27:30.579Z,14.70
2022-12-03T10:29:59.694Z,15.00
2022-12-03T10:32:41.521Z,15.05
2022-12-03T10:35:20.804Z,14.18
2022-12-03T10:38:08.054Z,15.18
2022-12-03T10:40:37.556Z,15.02
2022-12-03T10:43:22.963Z,14.43
2022-12-03T10:46:12.793Z,14.57
2022-12-03T10:48:39.643Z,15.35
2022-12-03T10:51:15.514Z,14.73
2022-12-03T10:53:42.445Z,13.32
2022-12-03T10:56:16.451Z,13.90
2022-12-03T10:58:43.085Z,15.98
2022-12-03T11:01:22.342Z,14.80
2022-12-03T11:03:49.863Z,14.50
2022-12-03T11:06:19.729Z,13.68
2022-12-03T11:08:57.519Z,15.23
2022-12-03T11:11:27.813Z,13.52
2022-12-03T11:13:59.362Z,13.73
2022-12-03T11:16:41.065Z,18.13
2022-12-03T11:19:20.627Z,13.82
2022-12-03T11:22:05.846Z,16.15
2022-12-03T11:24:37.596Z,13.82
2022-12-03T11:27:04.136Z,14.40
2022-12-03T11:29:59.100Z,14.80
2022-12-03T11:32:38.309Z,13.13
2022-12-03T11:35:16.294Z,13.75
2022-12-03T11:37:45.776Z,14.15
2022-12-03T11:40:18.777Z,14.27
2022-12-03T11:42:47.350Z,17.38
2022-12-03T11:45:27.285Z,14.15
2022-12-03T11:48:06.102Z,13.73
2022-12-03T11:50:39.660Z,14.10
2022-12-03T11:53:22.436Z,13.63
2022-12-03T11:56:06.726Z,14.25
2022-12-03T11:58:35.943Z,15.20
2022-12-03T12:01:04.963Z,14.55
2022-12-03T12:03:37.111Z,12.02
2022-12-03T12:06:06.124Z,14.55
2022-12-03T12:08:34.975Z,15.73
2022-12-03T12:11:15.716Z,15.55
2022-12-03T12:13:45.490Z,15.35
2022-12-03T12:18:54.848Z,13.23
2022-12-03T12:21:48.106Z,14.57
2022-12-03T12:24:30.454Z,15.57
2022-12-03T12:27:02.579Z,15.95
2022-12-03T12:29:32.064Z,17.23
2022-12-03T12:32:17.873Z,15.80
2022-12-03T12:34:48.115Z,15.10
2022-12-03T12:37:21.966Z,15.23
2022-12-03T12:39:52.977Z,16.20
2022-12-03T12:42:34.480Z,16.38
2022-12-03T12:45:12.495Z,16.30
2022-12-03T12:47:46.490Z,15.80
2022-12-03T12:50:14.333Z,16.52
2022-12-03T12:53:08.312Z,15.77
2022-12-03T12:55:35.676Z,17.85
2022-12-03T12:58:07.837Z,15.48
2022-12-03T13:00:46.355Z,17.40
2022-12-03T13:03:17.245Z,16.52
2022-12-03T13:05:48.329Z,16.38
2022-12-03T13:08:31.671Z,14.60
2022-12-03T13:11:00.698Z,17.33
2022-12-03T13:13:32.490Z,16.15
2022-12-03T13:16:02.153Z,17.58
2022-12-03T13:18:44.589Z,16.83
2022-12-03T13:21:44.419Z,17.77
2022-12-03T13:24:27.172Z,17.52
2022-12-03T13:26:58.127Z,17.58
2022-12-03T13:29:27.067Z,16.80
2022-12-03T13:32:00.518Z,17.48
2022-12-03T13:34:32.385Z,18.10
2022-12-03T13:37:08.402Z,17.33
2022-12-03T13:39:38.303Z,16.27
2022-12-03T13:42:27.723Z,15.73
2022-12-03T13:44:58.357Z,16.52
2022-12-03T13:47:28.444Z,18.08
2022-12-03T13:50:07.526Z,16.88
2022-12-03T13:52:35.605Z,17.77
2022-12-03T13:55:07.533Z,17.00
2022-12-03T13:57:35.247Z,18.27
2022-12-03T14:00:01.898Z,16.63
2022-12-03T14:02:39.120Z,17.38
2022-12-03T14:05:07.836Z,18.48
2022-12-03T14:07:35.076Z,18.15
2022-12-03T14:10:09.362Z,16.98
2022-12-03T14:12:39.362Z,17.48
2022-12-03T14:15:06.881Z,17.58
2022-12-03T14:17:34.371Z,17.40
2022-12-03T14:20:01.960Z,17.25
2022-12-03T14:22:31.963Z,17.77
2022-12-03T14:24:58.932Z,18.45
2022-12-03T14:27:28.192Z,17.13
2022-12-03T14:29:56.794Z,18.00
2022-12-03T14:32:26.812Z,16.75
2022-12-03T14:34:56.167Z,16.50
2022-12-03T14:37:23.453Z,16.25
2022-12-03T14:39:50.325Z,15.18
2022-12-03T14:42:18.522Z,16.08
2022-12-03T14:44:47.572Z,15.80
2022-12-03T14:47:16.168Z,17.08
2022-12-03T14:49:43.048Z,17.98
2022-12-03T14:52:12.481Z,15.73
2022-12-03T14:59:40.773Z,14.40
2022-12-03T15:02:07.961Z,15.15
2022-12-03T15:04:37.283Z,15.55
2022-12-03T15:07:15.573Z,13.65
2022-12-03T15:09:42.228Z,16.27
2022-12-03T15:12:11.851Z,14.85
2022-12-03T15:14:39.244Z,15.93
2022-12-03T15:17:05.961Z,14.60
2022-12-03T15:19:32.783Z,15.23
2022-12-03T15:22:02.076Z,14.93
2022-12-03T15:24:32.275Z,16.73
2022-12-03T15:27:00.385Z,15.65
2022-12-03T15:29:27.320Z,15.60
2022-12-03T15:32:02.059Z,17.88
2022-12-03T15:34:31.440Z,15.27
2022-12-03T15:36:58.106Z,12.27
2022-12-03T15:39:24.972Z,15.70
2022-12-03T15:41:51.898Z,16.52
2022-12-03T15:44:18.611Z,16.67
2022-12-03T15:46:49.784Z,15.48
2022-12-03T15:49:16.819Z,16.92
2022-12-03T15:51:46.420Z,15.80
2022-12-03T15:54:13.267Z,14.23
2022-12-03T15:56:43.193Z,15.20
2022-12-03T15:59:11.075Z,14.38
2022-12-03T16:01:37.855Z,15.15
2022-12-03T16:04:05.371Z,16.25
2022-12-03T16:06:33.546Z,15.27
2022-12-03T16:09:00.194Z,15.65
2022-12-03T16:11:26.869Z,16.27
2022-12-03T16:13:54.229Z,16.10
2022-12-03T16:16:24.277Z,15.43
2022-12-03T16:18:54.058Z,16.13
2022-12-03T16:21:26.475Z,16.50
2022-12-03T16:23:54.299Z,17.80
2022-12-03T16:26:21.794Z,14.98
2022-12-03T16:28:48.840Z,15.60
2022-12-03T16:31:16.164Z,15.05
2022-12-03T16:33:43.149Z,15.32
2022-12-03T16:36:12.754Z,16.10
2022-12-03T16:38:39.498Z,14.60
2022-12-03T16:41:06.619Z,17.20
2022-12-03T16:43:51.203Z,16.83
2022-12-03T16:46:18.939Z,15.73
2022-12-03T16:48:48.655Z,15.50
2022-12-03T16:51:19.897Z,15.40
2022-12-03T16:53:49.507Z,15.60
2022-12-03T16:56:16.746Z,15.88
2022-12-03T16:58:45.019Z,16.60
2022-12-03T17:01:12.604Z,14.77
2022-12-03T17:03:39.461Z,16.15
2022-12-03T17:06:06.467Z,16.75
2022-12-03T17:08:33.724Z,16.65
2022-12-03T17:11:02.144Z,16.85
2022-12-03T17:13:31.428Z,15.90
2022-12-03T17:15:58.904Z,16.38
2022-12-03T17:18:28.881Z,15.98
2022-12-03T17:20:55.706Z,14.63
2022-12-03T17:23:23.066Z,16.73
2022-12-03T17:25:50.270Z,16.42
2022-12-03T17:28:17.359Z,17.05
2022-12-03T17:30:46.565Z,15.55
2022-12-03T17:33:13.503Z,16.23
2022-12-03T17:35:48.411Z,15.68
2022-12-03T17:38:15.365Z,17.65
2022-12-03T17:40:44.904Z,15.70
2022-12-03T17:43:11.772Z,16.80
2022-12-03T17:45:38.662Z,15.27
2022-12-03T17:48:09.009Z,16.83
2022-12-03T17:50:38.942Z,22.98
2022-12-03T17:53:10.297Z,15.48
2022-12-03T17:55:44.634Z,14.15
2022-12-03T17:58:12.386Z,14.98
2022-12-03T18:00:39.487Z,15.00
2022-12-03T18:03:06.750Z,14.50
2022-12-03T18:05:34.154Z,15.90
2022-12-03T18:08:01.556Z,15.88
2022-12-03T18:10:31.724Z,14.70
2022-12-03T18:13:02.379Z,14.77
2022-12-03T18:15:32.714Z,15.15
2022-12-03T18:18:00.719Z,15.10
2022-12-03T18:20:29.737Z,14.82
2022-12-03T18:23:01.490Z,14.93
2022-12-03T18:25:31.060Z,15.90
2022-12-03T18:28:05.551Z,14.60
2022-12-03T18:30:32.478Z,13.98
2022-12-03T18:32:59.210Z,13.02
2022-12-03T18:35:26.339Z,13.52
2022-12-03T18:37:57.567Z,13.20
2022-12-03T18:40:29.115Z,12.20
2022-12-03T18:43:00.169Z,12.73
2022-12-03T18:45:29.020Z,14.00
2022-12-03T18:47:55.869Z,12.73
2022-12-03T18:50:25.846Z,12.00
2022-12-03T18:52:55.713Z,13.40
2022-12-03T18:59:29.158Z,13.77
2022-12-03T19:02:03.882Z,13.32
2022-12-03T19:04:30.807Z,13.75
2022-12-03T19:07:00.417Z,13.40
2022-12-03T19:09:30.583Z,14.75
2022-12-03T19:11:57.710Z,13.73
2022-12-03T19:14:24.724Z,13.75
2022-12-03T19:16:52.201Z,14.10
2022-12-03T19:19:22.309Z,12.90
2022-12-03T19:21:51.423Z,12.85
2022-12-03T19:24:25.676Z,11.05
2022-12-03T19:26:55.368Z,14.50
2022-12-03T19:29:27.133Z,13.98
2022-12-03T19:31:54.597Z,14.40
2022-12-03T19:34:21.408Z,13.52
2022-12-03T19:36:50.601Z,14.18
2022-12-03T19:39:19.168Z,10.23
2022-12-03T19:41:56.490Z,14.07
2022-12-03T19:44:33.933Z,14.32
2022-12-03T19:47:05.112Z,14.48
2022-12-03T19:49:33.983Z,16.25
2022-12-03T19:52:01.289Z,13.97
2022-12-03T19:54:49.536Z,13.88
2022-12-03T19:57:23.323Z,12.77
2022-12-03T19:59:51.489Z,12.70
2022-12-03T20:02:18.774Z,14.13
2022-12-03T20:04:48.423Z,12.88
2022-12-03T20:07:21.201Z,14.68
2022-12-03T20:09:50.395Z,13.02
2022-12-03T20:12:20.624Z,13.20
2022-12-03T20:14:47.501Z,13.13
2022-12-03T20:17:17.706Z,14.32
2022-12-03T20:19:47.289Z,14.98
2022-12-03T20:22:13.953Z,14.15
2022-12-03T20:24:40.790Z,13.18
2022-12-03T20:27:09.988Z,13.23
2022-12-03T20:29:40.209Z,13.52
2022-12-03T20:32:07.315Z,14.73
2022-12-03T20:34:41.644Z,13.45
2022-12-03T20:37:08.388Z,14.18
2022-12-03T20:39:38.308Z,14.02
2022-12-03T20:42:07.556Z,14.45
2022-12-03T20:44:34.597Z,14.88
2022-12-03T20:47:07.275Z,15.90
2022-12-03T20:49:35.113Z,12.93
2022-12-03T20:52:04.507Z,14.23
2022-12-03T20:54:32.937Z,15.93
2022-12-03T20:56:59.663Z,13.35
2022-12-03T20:59:28.937Z,13.23
2022-12-03T21:01:59.068Z,14.70
2022-12-03T21:04:27.425Z,14.80
2022-12-03T21:06:56.125Z,15.50
2022-12-03T21:09:23.268Z,15.40
2022-12-03T21:11:50.267Z,14.02
2022-12-03T21:14:17.010Z,14.80
2022-12-03T21:17:07.866Z,14.68
2022-12-03T21:19:35.338Z,15.82
2022-12-03T21:22:03.723Z,13.85
2022-12-03T21:24:30.827Z,16.08
2022-12-03T21:27:02.558Z,15.30
2022-12-03T21:29:34.924Z,14.75
2022-12-03T21:32:02.184Z,14.60
2022-12-03T21:34:35.643Z,16.27
2022-12-03T21:37:05.485Z,14.10
2022-12-03T21:39:32.364Z,14.45
2022-12-03T21:42:34.367Z,12.77
2022-12-03T21:44:45.807Z,13.75
2022-12-03T21:47:14.349Z,13.55
2022-12-03T21:49:42.285Z,13.43
2022-12-03T21:52:11.556Z,12.90
2022-12-03T21:54:41.523Z,12.25
2022-12-03T21:57:08.293Z,12.45
2022-12-03T21:59:34.989Z,12.90
2022-12-03T22:02:04.543Z,12.05
2022-12-03T22:04:31.313Z,13.02
2022-12-03T22:07:00.286Z,12.93
2022-12-03T22:09:28.941Z,13.07
2022-12-03T22:11:57.825Z,12.23
2022-12-03T22:14:25.277Z,9.27
2022-12-03T22:16:52.743Z,12.32
2022-12-03T22:19:25.772Z,14.07
2022-12-03T22:21:52.734Z,13.02
2022-12-03T22:24:25.111Z,11.82
2022-12-03T22:26:59.072Z,11.43
2022-12-03T22:29:33.082Z,10.68
2022-12-03T22:32:14.217Z,11.75
2022-12-03T22:34:42.323Z,12.32
2022-12-03T22:37:09.338Z,11.23
2022-12-03T22:39:36.976Z,11.18
2022-12-03T22:42:07.350Z,10.95
2022-12-03T22:44:36.704Z,10.90
2022-12-03T22:47:04.441Z,12.18
2022-12-03T22:49:31.125Z,11.27
2022-12-03T22:51:57.885Z,10.18
2022-12-03T22:54:27.700Z,10.18
2022-12-03T22:57:18.751Z,10.65
2022-12-03T22:59:45.494Z,10.30
2022-12-03T23:02:17.979Z,10.63
2022-12-03T23:04:47.409Z,9.68
2022-12-03T23:07:15.870Z,10.32
2022-12-03T23:09:43.266Z,9.10
2022-12-03T23:12:10.419Z,10.27
2022-12-03T23:14:37.346Z,9.80
2022-12-03T23:17:04.919Z,9.50
2022-12-03T23:19:36.798Z,9.05
2022-12-03T23:22:06.774Z,9.82
2022-12-03T23:24:36.691Z,8.55
2022-12-03T23:27:06.097Z,10.05
2022-12-03T23:29:34.658Z,7.43
2022-12-03T23:32:04.075Z,9.48
2022-12-03T23:34:30.948Z,10.07
2022-12-03T23:36:58.089Z,9.93
2022-12-03T23:39:24.660Z,9.75
2022-12-03T23:41:52.288Z,9.98
2022-12-03T23:44:21.512Z,9.55
2022-12-03T23:46:48.322Z,9.10
2022-12-03T23:49:17.425Z,8.80
2022-12-03T23:51:45.435Z,9.82
2022-12-03T23:54:15.382Z,9.18
2022-12-03T23:56:42.115Z,9.95
2022-12-03T23:59:11.908Z,9.05
